createdAt,value
2018-01-23T00:00:47.863Z,3.00
2018-01-23T00:03:14.073Z,3.00
2018-01-23T00:05:40.330Z,3.00
2018-01-23T00:08:06.576Z,3.00
2018-01-23T00:10:33.525Z,2.90
2018-01-23T00:13:00.541Z,2.90
2018-01-23T00:15:26.751Z,2.90
2018-01-23T00:17:53.031Z,2.90
2018-01-23T00:20:20.004Z,2.90
2018-01-23T00:22:46.221Z,2.90
2018-01-23T00:25:13.199Z,3.00
2018-01-23T00:27:39.415Z,2.90
2018-01-23T00:30:05.675Z,3.00
2018-01-23T00:32:31.907Z,3.00
2018-01-23T00:34:58.108Z,3.00
2018-01-23T00:37:25.087Z,2.90
2018-01-23T00:39:51.290Z,2.90
2018-01-23T00:42:17.540Z,2.90
2018-01-23T00:44:43.772Z,2.90
2018-01-23T00:47:10.007Z,2.80
2018-01-23T00:49:36.228Z,2.80
2018-01-23T00:52:02.444Z,2.80
2018-01-23T00:54:28.681Z,2.70
2018-01-23T00:56:54.888Z,2.60
2018-01-23T00:59:21.138Z,2.60
2018-01-23T01:01:47.406Z,2.70
2018-01-23T01:04:13.605Z,2.70
2018-01-23T01:06:39.848Z,2.70
2018-01-23T01:09:06.117Z,2.70
2018-01-23T01:11:33.061Z,2.70
2018-01-23T01:14:00.037Z,2.60
2018-01-23T01:16:26.236Z,2.60
2018-01-23T01:18:53.209Z,2.60
2018-01-23T01:21:19.432Z,2.60
2018-01-23T01:23:45.632Z,2.60
2018-01-23T01:26:11.872Z,2.60
2018-01-23T01:28:38.831Z,2.50
2018-01-23T01:31:05.808Z,2.40
2018-01-23T01:33:32.016Z,2.40
2018-01-23T01:35:58.261Z,2.40
2018-01-23T01:38:24.516Z,2.40
2018-01-23T01:40:50.728Z,2.30
2018-01-23T01:43:16.968Z,2.40
2018-01-23T01:45:43.218Z,2.40
2018-01-23T01:48:09.469Z,2.40
2018-01-23T01:50:35.701Z,2.40
2018-01-23T01:53:01.910Z,2.30
2018-01-23T01:55:28.140Z,2.20
2018-01-23T01:57:54.377Z,2.20
2018-01-23T02:00:20.588Z,2.20
2018-01-23T02:02:46.816Z,2.30
2018-01-23T02:05:13.021Z,2.30
2018-01-23T02:07:39.277Z,2.30
2018-01-23T02:10:05.512Z,2.30
2018-01-23T02:12:31.721Z,2.40
2018-01-23T02:14:57.948Z,2.40
2018-01-23T02:17:24.174Z,2.40
2018-01-23T02:19:50.392Z,2.40
2018-01-23T02:22:16.625Z,2.40
2018-01-23T02:24:42.868Z,2.40
2018-01-23T02:27:09.076Z,2.40
2018-01-23T02:29:35.304Z,2.50
2018-01-23T02:32:01.536Z,2.50
2018-01-23T02:34:27.744Z,2.60
2018-01-23T02:36:54.725Z,2.70
2018-01-23T02:39:21.124Z,2.60
2018-01-23T02:41:48.118Z,2.70
2018-01-23T02:44:14.347Z,2.60
2018-01-23T02:46:40.588Z,2.70
2018-01-23T02:49:06.800Z,2.70
2018-01-23T02:51:33.153Z,2.60
2018-01-23T02:53:59.417Z,2.70
2018-01-23T02:56:26.386Z,2.80
2018-01-23T02:58:53.389Z,2.70
2018-01-23T03:01:19.642Z,2.70
2018-01-23T03:03:45.852Z,2.70
2018-01-23T03:06:12.087Z,2.60
2018-01-23T03:08:38.347Z,2.60
2018-01-23T03:11:05.297Z,2.50
2018-01-23T03:13:32.296Z,2.50
2018-01-23T03:15:58.549Z,2.50
2018-01-23T03:18:24.763Z,2.50
2018-01-23T03:20:51.000Z,2.60
2018-01-23T03:23:17.239Z,2.50
2018-01-23T03:25:43.553Z,2.50
2018-01-23T03:28:09.780Z,2.60
2018-01-23T03:30:36.018Z,2.60
2018-01-23T03:33:02.245Z,2.60
2018-01-23T03:35:28.499Z,2.60
2018-01-23T03:37:54.719Z,2.60
2018-01-23T03:40:20.917Z,2.50
2018-01-23T03:42:47.148Z,2.50
2018-01-23T03:45:13.390Z,2.40
2018-01-23T03:47:39.605Z,2.40
2018-01-23T03:50:05.860Z,2.40
2018-01-23T03:52:32.108Z,2.40
2018-01-23T03:54:58.347Z,2.30
2018-01-23T03:57:25.324Z,2.30
2018-01-23T03:59:51.534Z,2.20
2018-01-23T04:02:18.520Z,2.40
2018-01-23T04:04:44.743Z,2.30
2018-01-23T04:07:10.956Z,2.40
2018-01-23T04:09:37.199Z,2.40
2018-01-23T04:12:03.427Z,2.40
2018-01-23T04:14:29.652Z,2.50
2018-01-23T04:18:22.766Z,2.40
2018-01-23T04:20:49.203Z,2.50
2018-01-23T04:23:15.615Z,2.40
2018-01-23T04:25:42.019Z,2.40
2018-01-23T04:28:08.424Z,2.40
2018-01-23T04:30:35.561Z,2.40
2018-01-23T04:33:02.029Z,2.40
2018-01-23T04:35:28.550Z,2.40
2018-01-23T04:37:55.673Z,2.50
2018-01-23T04:40:22.129Z,2.50
2018-01-23T04:42:49.340Z,2.60
2018-01-23T04:45:15.726Z,2.50
2018-01-23T04:47:42.963Z,2.60
2018-01-23T04:50:09.421Z,2.50
2018-01-23T04:52:36.366Z,2.60
2018-01-23T04:55:03.526Z,2.60
2018-01-23T04:57:29.950Z,2.60
2018-01-23T04:59:57.114Z,2.60
2018-01-23T05:02:23.505Z,2.60
2018-01-23T05:04:49.958Z,2.60
2018-01-23T05:07:17.168Z,2.50
2018-01-23T05:09:43.621Z,2.50
2018-01-23T05:12:10.789Z,2.50
2018-01-23T05:14:37.248Z,2.40
2018-01-23T05:17:04.383Z,2.40
2018-01-23T05:19:30.817Z,2.40
2018-01-23T05:21:57.992Z,2.40
2018-01-23T05:24:24.451Z,2.40
2018-01-23T05:26:50.873Z,2.30
2018-01-23T05:29:17.244Z,2.30
2018-01-23T05:31:43.657Z,2.40
2018-01-23T05:34:10.091Z,2.40
2018-01-23T05:36:36.517Z,2.40
2018-01-23T05:39:03.032Z,2.40
2018-01-23T05:41:29.447Z,2.50
2018-01-23T05:43:55.851Z,2.40
2018-01-23T05:46:22.271Z,2.50
2018-01-23T05:48:48.709Z,2.60
2018-01-23T05:51:15.093Z,2.50
2018-01-23T05:53:42.334Z,2.60
2018-01-23T05:56:09.501Z,2.70
2018-01-23T05:58:36.684Z,2.60
2018-01-23T06:01:03.124Z,2.60
2018-01-23T06:03:29.568Z,2.60
2018-01-23T06:05:55.995Z,2.50
2018-01-23T06:08:22.424Z,2.60
2018-01-23T06:10:48.962Z,2.60
2018-01-23T06:13:15.375Z,2.60
2018-01-23T06:15:41.804Z,2.60
2018-01-23T06:18:08.237Z,2.60
2018-01-23T06:20:35.386Z,2.50
2018-01-23T06:23:02.549Z,2.50
2018-01-23T06:25:28.978Z,2.50
2018-01-23T06:27:55.373Z,2.60
2018-01-23T06:30:21.777Z,2.60
2018-01-23T06:32:48.166Z,2.60
2018-01-23T06:35:15.300Z,2.50
2018-01-23T06:37:41.702Z,2.50
2018-01-23T06:40:08.250Z,2.50
2018-01-23T06:42:34.653Z,2.50
2018-01-23T06:45:01.029Z,2.50
2018-01-23T06:47:27.451Z,2.50
2018-01-23T06:49:53.875Z,2.50
2018-01-23T06:52:20.288Z,2.50
2018-01-23T06:54:46.772Z,2.60
2018-01-23T06:57:13.186Z,2.50
2018-01-23T06:59:39.569Z,2.50
2018-01-23T07:02:06.020Z,2.50
2018-01-23T07:04:32.445Z,2.60
2018-01-23T07:06:58.873Z,2.70
2018-01-23T07:09:25.265Z,2.70
2018-01-23T07:11:51.690Z,2.70
2018-01-23T07:14:18.079Z,2.60
2018-01-23T07:16:44.493Z,2.60
2018-01-23T07:19:11.638Z,2.70
2018-01-23T07:21:38.797Z,2.60
2018-01-23T07:24:05.911Z,2.60
2018-01-23T07:26:32.296Z,2.60
2018-01-23T07:28:59.441Z,2.50
2018-01-23T07:31:25.848Z,2.50
2018-01-23T07:33:52.993Z,2.50
2018-01-23T07:36:19.402Z,2.50
2018-01-23T07:38:45.821Z,2.50
2018-01-23T07:41:12.281Z,2.60
2018-01-23T07:43:38.701Z,2.60
2018-01-23T07:46:05.097Z,2.60
2018-01-23T07:48:32.238Z,2.70
2018-01-23T07:50:59.400Z,2.80
2018-01-23T07:53:25.818Z,2.80
2018-01-23T07:55:53.034Z,2.70
2018-01-23T07:58:19.451Z,2.60
2018-01-23T08:00:45.837Z,2.70
2018-01-23T08:03:12.367Z,2.80
2018-01-23T08:05:38.750Z,2.80
2018-01-23T08:08:05.198Z,2.80
2018-01-23T08:10:31.573Z,2.80
2018-01-23T08:12:58.742Z,2.90
2018-01-23T08:15:25.927Z,2.90
2018-01-23T08:17:52.380Z,2.80
2018-01-23T08:20:18.795Z,2.90
2018-01-23T08:22:45.181Z,2.80
2018-01-23T08:25:12.361Z,2.90
2018-01-23T08:27:38.786Z,2.80
2018-01-23T08:30:05.970Z,2.90
2018-01-23T08:32:32.335Z,2.90
2018-01-23T08:34:58.753Z,2.90
2018-01-23T08:37:25.164Z,3.00
2018-01-23T08:39:51.628Z,3.00
2018-01-23T08:42:18.038Z,3.00
2018-01-23T08:44:44.526Z,3.00
2018-01-23T08:47:11.685Z,3.10
2018-01-23T08:49:38.821Z,3.10
2018-01-23T08:52:05.248Z,3.00
2018-01-23T08:54:32.400Z,3.10
2018-01-23T08:56:58.857Z,3.10
2018-01-23T08:59:26.073Z,3.20
2018-01-23T09:01:52.498Z,3.20
2018-01-23T09:04:18.909Z,3.20
2018-01-23T09:06:45.379Z,3.20
2018-01-23T09:09:11.770Z,3.30
2018-01-23T09:11:38.181Z,3.30
2018-01-23T09:14:05.343Z,3.40
2018-01-23T09:16:32.492Z,3.40
2018-01-23T09:18:59.657Z,3.50
2018-01-23T09:21:26.046Z,3.40
2018-01-23T09:23:52.506Z,3.50
2018-01-23T09:26:19.630Z,3.60
2018-01-23T09:28:46.101Z,3.60
2018-01-23T09:31:13.244Z,3.70
2018-01-23T09:33:40.441Z,3.70
2018-01-23T09:36:06.825Z,3.60
2018-01-23T09:38:34.000Z,3.80
2018-01-23T09:41:00.471Z,3.80
2018-01-23T09:43:26.909Z,3.90
2018-01-23T09:45:53.304Z,4.00
2018-01-23T09:48:19.810Z,4.10
2018-01-23T09:50:46.171Z,4.20
2018-01-23T09:53:12.588Z,4.30
2018-01-23T09:55:39.749Z,4.30
2018-01-23T09:58:06.175Z,4.30
2018-01-23T10:00:33.363Z,4.40
2018-01-23T10:02:59.756Z,4.30
2018-01-23T10:05:26.914Z,4.40
2018-01-23T10:07:54.048Z,4.40
2018-01-23T10:10:20.464Z,4.40
2018-01-23T10:12:46.874Z,4.40
2018-01-23T10:15:13.303Z,4.40
2018-01-23T10:17:39.686Z,4.50
2018-01-23T10:20:06.105Z,4.50
2018-01-23T10:22:32.538Z,4.40
2018-01-23T10:24:59.722Z,4.50
2018-01-23T10:27:26.877Z,4.40
2018-01-23T10:29:54.036Z,4.40
2018-01-23T10:32:20.462Z,4.40
2018-01-23T10:34:47.637Z,4.60
2018-01-23T10:37:14.061Z,4.60
2018-01-23T10:39:40.489Z,4.80
2018-01-23T10:42:06.887Z,4.80
2018-01-23T10:44:33.295Z,4.80
2018-01-23T10:46:59.694Z,4.80
2018-01-23T10:49:26.262Z,4.80
2018-01-23T10:51:52.654Z,4.80
2018-01-23T10:54:19.833Z,4.80
2018-01-23T10:56:46.213Z,4.70
2018-01-23T10:59:12.633Z,4.80
2018-01-23T11:01:40.097Z,4.80
2018-01-23T11:04:06.513Z,4.80
2018-01-23T11:06:32.929Z,4.80
2018-01-23T11:08:59.358Z,4.80
2018-01-23T11:11:25.784Z,4.70
2018-01-23T11:13:52.181Z,4.80
2018-01-23T11:16:18.623Z,4.80
2018-01-23T11:18:44.996Z,4.80
2018-01-23T11:21:11.443Z,4.80
2018-01-23T11:23:37.877Z,4.80
2018-01-23T11:26:04.317Z,4.80
2018-01-23T11:28:30.711Z,4.90
2018-01-23T11:30:57.888Z,4.90
2018-01-23T11:33:24.340Z,4.80
2018-01-23T11:35:50.757Z,4.90
2018-01-23T11:38:17.166Z,4.90
2018-01-23T11:40:44.320Z,5.00
2018-01-23T11:43:11.450Z,5.10
2018-01-23T11:45:37.857Z,5.00
2018-01-23T11:48:04.309Z,5.10
2018-01-23T11:50:30.716Z,5.10
2018-01-23T11:52:57.122Z,5.20
2018-01-23T11:55:23.527Z,5.20
2018-01-23T11:57:50.710Z,5.30
2018-01-23T12:00:17.159Z,5.20
2018-01-23T12:02:43.617Z,5.20
2018-01-23T12:05:10.054Z,5.20
2018-01-23T12:07:36.554Z,5.20
2018-01-23T12:10:03.069Z,5.20
2018-01-23T12:12:30.239Z,5.20
2018-01-23T12:14:56.758Z,5.10
2018-01-23T12:17:23.933Z,5.10
2018-01-23T12:19:50.387Z,5.10
2018-01-23T12:22:16.774Z,5.00
2018-01-23T12:24:43.917Z,5.10
2018-01-23T12:27:11.095Z,5.10
2018-01-23T12:29:37.520Z,5.10
2018-01-23T12:32:03.913Z,5.10
2018-01-23T12:34:30.355Z,5.00
2018-01-23T12:36:56.818Z,5.00
2018-01-23T12:39:23.970Z,5.10
2018-01-23T12:41:50.479Z,5.00
2018-01-23T12:44:16.861Z,5.20
2018-01-23T12:46:43.286Z,5.30
2018-01-23T12:49:09.693Z,5.40
2018-01-23T12:51:36.142Z,5.50
2018-01-23T12:54:03.302Z,5.60
2018-01-23T12:56:30.469Z,5.60
2018-01-23T12:58:56.910Z,5.60
2018-01-23T13:01:23.364Z,5.70
2018-01-23T13:03:49.769Z,5.70
2018-01-23T13:06:16.252Z,5.70
2018-01-23T13:08:42.641Z,5.80
2018-01-23T13:11:09.078Z,5.90
2018-01-23T13:13:35.453Z,6.00
2018-01-23T13:16:01.866Z,6.00
2018-01-23T13:18:28.305Z,6.00
2018-01-23T13:20:54.703Z,6.00
2018-01-23T13:23:21.125Z,5.90
2018-01-23T13:25:48.261Z,5.80
2018-01-23T13:28:14.681Z,5.80
2018-01-23T13:30:41.065Z,5.70
2018-01-23T13:33:07.514Z,5.70
2018-01-23T13:35:33.942Z,5.70
2018-01-23T13:38:00.342Z,5.60
2018-01-23T13:40:27.564Z,5.70
2018-01-23T13:42:53.969Z,5.60
2018-01-23T13:45:20.382Z,5.80
2018-01-23T13:47:46.822Z,5.80
2018-01-23T13:50:13.237Z,5.80
2018-01-23T13:52:40.371Z,5.70
2018-01-23T13:55:06.796Z,5.70
2018-01-23T13:57:33.227Z,5.70
2018-01-23T13:59:59.659Z,5.80
2018-01-23T14:02:26.098Z,5.80
2018-01-23T14:04:52.502Z,5.70
2018-01-23T14:07:18.913Z,5.70
2018-01-23T14:09:45.326Z,5.70
2018-01-23T14:12:12.489Z,5.80
2018-01-23T14:14:39.633Z,5.80
2018-01-23T14:17:06.787Z,5.80
2018-01-23T14:19:33.934Z,5.80
2018-01-23T14:22:01.054Z,5.90
2018-01-23T14:24:27.520Z,5.80
2018-01-23T14:26:54.654Z,5.90
2018-01-23T14:29:21.073Z,5.80
2018-01-23T14:31:47.465Z,5.90
2018-01-23T14:34:13.882Z,5.80
2018-01-23T14:36:40.409Z,5.80
2018-01-23T14:39:07.569Z,5.80
2018-01-23T14:41:34.729Z,5.70
2018-01-23T14:44:01.150Z,5.70
2018-01-23T14:46:28.289Z,5.70
2018-01-23T14:48:55.458Z,5.50
2018-01-23T14:51:22.602Z,5.50
2018-01-23T14:53:49.761Z,5.40
2018-01-23T14:56:16.894Z,5.40
2018-01-23T14:58:45.452Z,5.30
2018-01-23T15:01:11.897Z,5.30
2018-01-23T15:03:38.415Z,5.30
2018-01-23T15:06:04.878Z,5.30
2018-01-23T15:08:31.373Z,5.20
2018-01-23T15:10:57.763Z,5.20
2018-01-23T15:13:24.976Z,5.10
2018-01-23T15:15:51.421Z,5.10
2018-01-23T15:18:17.875Z,5.10
2018-01-23T15:20:44.294Z,5.00
2018-01-23T15:23:10.710Z,5.00
2018-01-23T15:25:37.315Z,4.90
2018-01-23T15:28:03.876Z,4.90
2018-01-23T15:30:30.301Z,4.90
2018-01-23T15:32:56.701Z,4.80
2018-01-23T15:35:23.896Z,4.80
2018-01-23T15:37:50.457Z,4.80
2018-01-23T15:40:16.869Z,4.90
2018-01-23T15:42:43.400Z,4.90
2018-01-23T15:45:09.828Z,4.90
2018-01-23T15:47:36.255Z,4.90
2018-01-23T15:50:02.753Z,4.90
2018-01-23T15:52:29.162Z,4.80
2018-01-23T15:54:55.610Z,4.80
2018-01-23T15:57:22.055Z,4.80
2018-01-23T15:59:48.525Z,4.80
2018-01-23T16:02:14.908Z,4.80
2018-01-23T16:04:41.338Z,4.70
2018-01-23T16:07:07.866Z,4.70
2018-01-23T16:09:34.488Z,4.70
2018-01-23T16:12:00.892Z,4.70
2018-01-23T16:14:28.209Z,4.60
2018-01-23T16:16:54.630Z,4.60
2018-01-23T16:19:21.062Z,4.50
2018-01-23T16:21:47.481Z,4.50
2018-01-23T16:24:13.913Z,4.40
2018-01-23T16:26:40.334Z,4.40
2018-01-23T16:29:06.745Z,4.50
2018-01-23T16:31:33.909Z,4.40
2018-01-23T16:34:00.422Z,4.40
2018-01-23T16:36:26.845Z,4.40
2018-01-23T16:38:53.298Z,4.40
2018-01-23T16:41:20.442Z,4.40
2018-01-23T16:43:46.881Z,4.30
2018-01-23T16:46:14.080Z,4.40
2018-01-23T16:48:40.492Z,4.40
2018-01-23T16:51:06.917Z,4.40
2018-01-23T16:53:34.133Z,4.30
2018-01-23T16:56:00.550Z,4.30
2018-01-23T16:58:26.971Z,4.30
2018-01-23T17:00:53.410Z,4.30
2018-01-23T17:03:19.829Z,4.30
2018-01-23T17:05:46.266Z,4.30
2018-01-23T17:08:12.707Z,4.30
2018-01-23T17:10:39.134Z,4.20
2018-01-23T17:13:05.523Z,4.20
2018-01-23T17:15:31.933Z,4.20
2018-01-23T17:17:58.341Z,4.20
2018-01-23T17:20:24.754Z,4.10
2018-01-23T17:22:51.258Z,4.10
2018-01-23T17:25:17.688Z,4.00
2018-01-23T17:27:44.073Z,4.00
2018-01-23T17:30:10.498Z,4.10
2018-01-23T17:32:37.055Z,4.10
2018-01-23T17:35:03.502Z,4.10
2018-01-23T17:37:29.897Z,4.10
2018-01-23T17:39:56.269Z,4.10
2018-01-23T17:42:22.678Z,4.20
2018-01-23T17:44:49.053Z,4.30
2018-01-23T17:47:15.297Z,4.20
2018-01-23T17:49:41.504Z,4.20
2018-01-23T17:52:07.902Z,4.20
2018-01-23T17:54:34.323Z,4.20
2018-01-23T17:57:00.704Z,4.20
2018-01-23T17:59:27.134Z,4.20
2018-01-23T18:01:53.551Z,4.10
2018-01-23T18:04:19.958Z,4.10
2018-01-23T18:06:46.377Z,4.10
2018-01-23T18:09:13.569Z,4.00
2018-01-23T18:11:39.956Z,4.00
2018-01-23T18:14:07.169Z,4.00
2018-01-23T18:16:33.649Z,3.90
2018-01-23T18:19:00.824Z,3.80
2018-01-23T18:21:27.214Z,3.80
2018-01-23T18:23:54.493Z,3.80
2018-01-23T18:26:21.657Z,3.80
2018-01-23T18:28:48.638Z,3.80
2018-01-23T18:31:14.869Z,3.70
2018-01-23T18:33:41.302Z,3.80
2018-01-23T18:36:07.758Z,3.80
2018-01-23T18:38:34.193Z,3.80
2018-01-23T18:41:00.669Z,3.90
2018-01-23T18:43:27.650Z,3.80
2018-01-23T18:45:53.947Z,3.80
2018-01-23T18:48:20.892Z,3.50
2018-01-23T18:50:47.862Z,3.30
2018-01-23T18:53:14.081Z,3.20
2018-01-23T18:55:40.359Z,3.10
2018-01-23T18:58:06.670Z,2.90
2018-01-23T19:00:32.932Z,2.60
2018-01-23T19:02:59.193Z,2.30
2018-01-23T19:05:26.162Z,2.60
2018-01-23T19:07:52.415Z,2.50
2018-01-23T19:10:18.702Z,2.60
2018-01-23T19:12:45.668Z,2.80
2018-01-23T19:15:11.905Z,2.80
2018-01-23T19:17:38.128Z,3.00
2018-01-23T19:20:05.171Z,3.10
2018-01-23T19:22:31.387Z,3.00
2018-01-23T19:24:58.411Z,3.20
2018-01-23T19:27:25.371Z,3.20
2018-01-23T19:29:51.680Z,3.20
2018-01-23T19:32:17.988Z,3.30
2018-01-23T19:34:44.275Z,3.30
2018-01-23T19:37:11.250Z,3.30
2018-01-23T19:39:37.471Z,3.30
2018-01-23T19:42:03.751Z,3.30
2018-01-23T19:44:30.034Z,3.30
2018-01-23T19:46:56.310Z,3.30
2018-01-23T19:49:22.717Z,3.30
2018-01-23T19:51:48.980Z,3.20
2018-01-23T19:54:15.200Z,3.20
2018-01-23T19:56:41.431Z,3.30
2018-01-23T19:59:07.669Z,3.30
2018-01-23T20:01:33.908Z,3.30
2018-01-23T20:04:00.197Z,3.30
2018-01-23T20:06:26.422Z,3.30
2018-01-23T20:08:52.716Z,3.30
2018-01-23T20:11:18.983Z,3.30
2018-01-23T20:13:45.236Z,3.40
2018-01-23T20:16:11.502Z,3.40
2018-01-23T20:18:38.501Z,3.30
2018-01-23T20:21:04.717Z,3.30
2018-01-23T20:23:30.954Z,3.30
2018-01-23T20:25:57.237Z,3.20
2018-01-23T20:28:24.267Z,2.70
2018-01-23T20:30:50.477Z,2.60
2018-01-23T20:33:16.768Z,2.40
2018-01-23T20:35:43.761Z,2.10
2018-01-23T20:38:10.013Z,2.00
2018-01-23T20:40:36.322Z,1.80
2018-01-23T20:43:02.547Z,1.70
2018-01-23T20:45:28.790Z,1.60
2018-01-23T20:47:55.028Z,1.50
2018-01-23T20:50:21.228Z,1.60
2018-01-23T20:52:47.459Z,1.60
2018-01-23T20:55:13.687Z,1.70
2018-01-23T20:57:39.936Z,1.80
2018-01-23T21:00:06.172Z,1.90
2018-01-23T21:02:32.412Z,1.90
2018-01-23T21:04:58.639Z,2.00
2018-01-23T21:07:24.891Z,2.00
2018-01-23T21:09:51.136Z,2.10
2018-01-23T21:12:18.134Z,2.00
2018-01-23T21:14:44.409Z,1.90
2018-01-23T21:17:11.374Z,2.00
2018-01-23T21:19:37.603Z,1.90
2018-01-23T21:22:03.869Z,2.00
2018-01-23T21:24:30.127Z,2.10
2018-01-23T21:26:56.416Z,2.10
2018-01-23T21:29:22.748Z,2.20
2018-01-23T21:31:48.977Z,2.20
2018-01-23T21:34:15.189Z,2.20
2018-01-23T21:36:41.473Z,2.30
2018-01-23T21:39:07.702Z,2.30
2018-01-23T21:41:33.959Z,2.30
2018-01-23T21:44:00.901Z,2.10
2018-01-23T21:46:27.125Z,2.10
2018-01-23T21:48:53.332Z,2.00
2018-01-23T21:51:19.581Z,1.90
2018-01-23T21:53:45.795Z,1.80
2018-01-23T21:56:12.029Z,1.70
2018-01-23T21:58:38.318Z,1.60
2018-01-23T22:01:04.897Z,1.60
2018-01-23T22:03:31.113Z,1.50
2018-01-23T22:05:57.362Z,1.30
2018-01-23T22:08:23.569Z,1.30
2018-01-23T22:10:49.808Z,1.20
2018-01-23T22:13:16.054Z,1.10
2018-01-23T22:15:42.266Z,1.00
2018-01-23T22:18:08.541Z,0.80
2018-01-23T22:20:35.509Z,0.50
2018-01-23T22:23:01.749Z,0.50
2018-01-23T22:25:27.965Z,0.40
2018-01-23T22:27:54.217Z,0.30
2018-01-23T22:30:20.472Z,0.20
2018-01-23T22:32:46.735Z,0.20
2018-01-23T22:35:13.692Z,0.20
2018-01-23T22:37:41.280Z,0.30
2018-01-23T22:40:07.804Z,0.20
2018-01-23T22:42:34.570Z,0.30
2018-01-23T22:45:01.428Z,0.30
2018-01-23T22:50:29.044Z,0.30
2018-01-23T22:52:58.605Z,0.30
2018-01-23T22:55:31.122Z,0.20
2018-01-23T22:57:59.955Z,0.20
2018-01-23T23:00:29.983Z,0.10
2018-01-23T23:03:01.710Z,0.10
2018-01-23T23:05:31.262Z,0.00
2018-01-23T23:08:00.291Z,-0.10
2018-01-23T23:10:28.975Z,-0.20
2018-01-23T23:12:58.447Z,-0.20
2018-01-23T23:15:27.973Z,-0.30
2018-01-23T23:17:58.856Z,-0.40
2018-01-23T23:20:29.900Z,-0.40
2018-01-23T23:22:56.869Z,-0.50
2018-01-23T23:25:23.130Z,-0.60
2018-01-23T23:27:49.340Z,-0.60
2018-01-23T23:30:15.588Z,-0.60
2018-01-23T23:32:41.803Z,-0.70
2018-01-23T23:35:08.038Z,-0.70
2018-01-23T23:37:34.267Z,-0.60
2018-01-23T23:40:00.496Z,-0.50
2018-01-23T23:42:26.717Z,-0.30
2018-01-23T23:44:52.916Z,-0.20
2018-01-23T23:47:19.883Z,-0.20
2018-01-23T23:49:46.102Z,-0.30
2018-01-23T23:52:12.334Z,-0.40
2018-01-23T23:54:38.548Z,-0.50
2018-01-23T23:57:05.544Z,-0.50
2018-01-23T23:59:31.757Z,-0.60
